Date,TemperatureHighF,TemperatureAvgF,TemperatureLowF,DewpointHighF,DewpointAvgF,DewpointLowF,HumidityHigh,HumidityAvg,HumidityLow,PressureMaxIn,PressureMinIn,WindSpeedMaxMPH,WindSpeedAvgMPH,GustSpeedMaxMPH,PrecipitationSumIn
2013-1-1,48,43,36,46,39,34,95,86,73,30.05,29.50,11,3,15,0.07
2013-1-2,51,44,36,50,42,34,96,94,88,30.33,30.05,6,1,15,0.01
2013-1-3,52,51,48,50,49,47,97,93,90,30.61,30.33,7,2,12,0.00
2013-1-4,50,49,46,48,46,44,94,89,83,30.66,30.60,8,3,13,0.00
2013-1-5,51,48,43,50,46,42,98,94,88,30.60,30.51,7,1,11,0.00
2013-1-6,47,45,42,46,44,41,98,97,94,30.53,30.39,3,0,5,0.01
2013-1-7,48,46,45,46,45,43,96,94,91,30.39,30.26,4,1,8,0.00
2013-1-8,52,50,47,49,47,44,97,89,84,30.27,30.18,4,1,10,0.04
2013-1-9,49,44,32,48,42,31,98,92,76,30.19,30.08,3,-3,9,0.07
2013-1-10,39,36,31,37,35,30,98,95,91,30.07,29.93,4,0,7,0.01
2013-1-11,44,38,33,40,36,32,97,93,84,30.10,29.98,4,0,6,0.00
2013-1-12,41,39,35,38,34,29,96,84,62,29.98,29.85,10,4,17,0.13
2013-1-13,39,36,32,36,31,28,87,81,74,30.14,29.95,7,1,14,0.00
2013-1-14,38,35,32,37,32,29,96,92,84,30.11,29.64,9,-2,16,0.13
2013-1-15,37,34,28,33,31,27,95,88,82,29.88,29.64,9,2,16,0.00
2013-1-16,34,30,26,31,28,25,96,93,87,30.03,29.85,4,0,6,0.00
2013-1-17,37,32,25,32,29,24,97,89,76,30.09,29.89,5,1,8,0.00
2013-1-18,36,31,29,30,28,27,96,88,75,29.89,29.43,9,1,15,0.01
2013-1-19,34,32,31,32,29,27,93,86,83,29.49,29.41,8,3,16,0.00
2013-1-20,32,31,30,31,28,27,95,89,83,29.48,29.28,6,2,12,0.00
2013-1-21,37,32,26,32,30,25,96,91,80,29.50,29.28,3,0,4,0.05
2013-1-22,37,34,24,35,31,23,97,91,79,29.68,29.51,11,4,19,0.31
2013-1-23,37,36,35,33,32,31,89,86,81,29.81,29.68,9,4,15,0.01
2013-1-24,36,35,34,32,30,26,90,83,67,30.14,29.81,6,1,11,0.00
2013-1-25,38,35,32,36,31,28,92,84,77,30.13,29.57,11,4,17,0.02
2013-1-26,47,42,37,44,39,35,97,90,77,29.83,29.55,9,2,20,0.14
2013-1-27,50,45,39,50,41,36,98,87,62,29.62,29.28,13,4,23,0.09
2013-1-28,51,44,36,49,41,33,95,90,81,29.83,29.52,11,2,24,0.06
2013-1-29,56,53,49,54,51,46,97,92,82,29.66,29.55,7,2,17,0.03
2013-1-30,54,50,44,53,44,38,96,81,62,30.05,29.51,15,5,25,0.10
2013-1-31,50,48,44,46,42,39,94,79,66,30.05,29.81,19,4,27,0.09
2013-2-1,46,42,38,42,39,36,95,90,80,29.85,29.45,8,1,14,0.20
2013-2-2,42,39,33,38,32,27,92,77,62,30.25,29.60,11,3,20,0.00
2013-2-3,49,41,30,46,38,26,93,88,79,30.27,29.91,6,1,13,0.00
2013-2-4,50,48,43,47,41,35,91,77,60,29.95,29.72,15,5,27,0.00
2013-2-5,44,40,36,39,34,28,93,78,59,29.72,29.34,15,6,28,0.04
2013-2-6,43,41,36,39,34,29,90,78,68,30.07,29.37,10,4,23,0.00
2013-2-7,42,38,33,36,32,28,93,80,68,30.12,29.99,9,3,16,0.00
2013-2-8,42,38,33,37,34,31,94,84,67,30.15,30.03,6,2,11,0.01
2013-2-9,39,37,34,37,35,32,95,91,83,30.16,29.86,4,1,9,0.02
2013-2-10,42,39,33,40,37,32,97,95,92,29.86,29.26,10,4,17,0.42
2013-2-11,35,34,33,34,33,32,97,97,97,29.78,29.28,7,2,11,0.25
2013-2-12,36,35,34,34,31,28,97,85,76,30.14,29.77,4,1,9,0.00
2013-2-13,41,36,34,39,30,25,93,81,67,30.21,29.98,10,3,16,0.02
2013-2-14,51,46,40,46,42,37,97,86,68,29.98,29.75,10,4,17,0.05
2013-2-15,49,41,34,41,36,32,97,84,62,30.21,29.98,7,1,10,0.00
2013-2-16,52,43,38,41,37,33,93,80,50,30.25,30.19,4,0,6,0.00
2013-2-17,50,39,29,41,35,28,97,85,52,30.21,30.09,9,2,13,0.00
2013-2-18,48,40,33,38,35,31,95,84,61,30.14,30.09,7,2,12,0.01
2013-2-19,50,37,27,39,33,25,97,85,56,30.14,30.03,3,0,4,0.00
2013-2-20,42,38,35,38,33,28,96,82,67,30.25,30.09,11,4,20,0.02
2013-2-21,37,35,33,28,24,22,73,66,58,30.27,30.16,11,2,19,0.00
2013-2-22,36,34,33,27,24,22,75,67,60,30.17,30.10,10,3,19,0.00
2013-2-23,36,34,32,30,27,23,86,74,61,30.21,30.09,6,1,12,0.00
2013-2-24,36,35,33,30,29,27,87,78,72,30.28,30.20,4,1,12,0.00
2013-2-25,40,38,35,36,34,29,89,86,78,30.38,30.26,8,2,15,0.00
2013-2-26,41,39,37,39,37,35,95,93,88,30.55,30.38,6,2,15,0.02
2013-2-27,44,39,36,37,35,33,94,86,71,30.58,30.47,6,2,12,0.00
2013-2-28,47,40,35,39,35,32,91,83,71,30.48,30.32,7,2,14,0.00
2013-3-1,44,41,37,41,35,31,96,81,66,30.40,30.36,8,2,15,0.02
2013-3-2,41,37,27,33,31,25,92,78,71,30.40,30.27,5,-3,11,0.00
2013-3-3,46,37,25,37,32,23,96,86,68,30.29,30.10,8,1,15,0.00
2013-3-4,50,41,35,39,35,32,93,82,65,30.10,29.73,8,2,14,0.00
2013-3-5,61,45,30,46,38,29,97,79,55,29.73,29.57,8,1,11,0.00
2013-3-6,57,50,44,46,43,39,87,76,65,29.57,29.49,6,1,10,0.01
2013-3-7,50,48,46,48,46,44,97,94,87,29.50,29.36,5,1,9,0.21
2013-3-8,51,49,47,50,48,46,98,97,96,29.54,29.37,5,1,9,0.28
2013-3-9,47,44,39,46,41,35,97,92,85,29.67,29.53,2,0,6,0.02
2013-3-10,39,37,34,36,32,29,89,84,78,29.74,29.66,10,3,18,0.00
2013-3-11,34,32,29,29,24,20,84,74,61,29.76,29.72,16,7,31,0.00
2013-3-12,41,34,28,33,24,18,86,67,47,29.82,29.74,16,5,26,0.00
2013-3-13,45,38,32,32,30,26,90,73,49,29.95,29.80,8,2,13,0.00
2013-3-14,45,37,28,33,28,24,95,72,45,30.03,29.92,6,1,11,0.00
2013-3-15,49,43,36,43,38,27,93,85,69,29.92,29.55,8,3,15,0.15
2013-3-16,47,44,42,44,41,39,95,89,84,29.55,29.28,12,4,21,0.07
2013-3-17,45,40,33,42,38,32,96,91,82,29.33,29.16,9,-2,17,0.21
2013-3-18,45,38,30,43,36,29,98,95,90,29.36,29.22,7,0,9,0.15
2013-3-19,48,41,36,40,37,35,96,87,68,29.51,29.36,7,1,10,0.01
2013-3-20,45,40,36,39,36,34,94,87,74,30.00,29.50,5,1,8,0.00
2013-3-21,45,40,35,36,34,32,90,79,65,30.03,29.91,11,4,18,0.03
2013-3-22,42,39,36,36,35,33,92,85,77,29.91,29.72,15,7,27,0.17
2013-3-23,38,35,34,36,34,33,97,95,89,29.87,29.74,11,5,19,0.11
2013-3-24,35,33,32,33,28,24,92,82,66,29.95,29.86,11,4,22,0.00
2013-3-25,35,34,33,27,26,24,75,71,65,29.98,29.92,11,4,22,0.00
2013-3-26,35,34,33,28,26,24,77,70,65,29.95,29.88,10,3,18,0.00
2013-3-27,40,36,32,28,26,24,83,68,57,29.88,29.84,10,2,16,0.00
2013-3-28,40,36,28,31,26,22,92,70,52,29.94,29.86,9,2,15,0.00
2013-3-29,42,36,29,29,26,23,83,67,48,29.92,29.77,9,2,19,0.00
2013-3-30,42,38,34,32,29,27,82,70,59,29.97,29.79,7,2,15,0.00
2013-3-31,42,38,32,30,27,24,80,64,52,29.97,29.89,8,3,13,0.00
2013-4-1,43,38,34,30,28,24,82,68,51,29.89,29.82,13,4,22,0.00
2013-4-2,46,39,31,32,25,18,86,61,33,30.05,29.88,12,4,22,0.00
2013-4-3,41,37,32,31,27,24,88,68,54,30.07,29.99,14,4,23,0.00
2013-4-4,38,36,34,34,29,24,92,77,61,29.99,29.90,10,3,19,0.06
2013-4-5,46,40,35,32,29,23,82,66,40,30.11,29.90,12,3,21,0.00
2013-4-6,52,41,31,34,30,26,91,66,38,30.27,30.11,8,1,14,0.00
2013-4-7,51,41,27,35,28,22,93,64,33,30.28,29.87,8,2,13,0.00
2013-4-8,50,44,39,36,32,27,82,65,42,29.87,29.54,11,5,21,0.00
2013-4-9,49,44,39,43,39,36,93,85,74,29.54,29.38,8,3,13,0.08
2013-4-10,51,44,37,43,39,35,94,84,68,29.72,29.41,10,-1,16,0.23
2013-4-11,57,47,43,48,44,42,97,91,69,29.50,29.35,10,2,17,0.09
2013-4-12,52,48,44,49,45,42,96,91,82,29.74,29.30,9,2,20,0.29
2013-4-13,53,48,38,51,45,36,96,90,74,29.91,29.74,11,2,17,0.12
2013-4-14,68,58,52,54,51,47,96,76,56,29.95,29.86,9,3,21,0.00
2013-4-15,61,55,49,50,48,45,89,78,65,30.06,29.94,6,-2,13,0.00
2013-4-16,63,55,49,49,46,42,93,74,48,30.08,29.91,9,2,15,0.00
2013-4-17,66,56,49,53,50,45,96,81,59,30.08,29.76,9,3,18,0.00
2013-4-18,59,51,46,47,42,34,90,70,50,30.08,29.79,14,4,29,0.06
2013-4-19,56,49,44,43,40,36,87,72,49,30.49,30.08,9,2,13,0.00
2013-4-20,57,47,34,40,34,27,96,65,33,30.56,30.36,8,2,13,0.00
2013-4-21,58,46,31,42,36,29,95,70,40,30.36,30.02,7,1,12,0.00
2013-4-22,60,51,42,48,44,40,95,79,51,30.03,29.94,7,1,11,0.00
2013-4-23,70,58,49,52,49,47,95,74,50,30.21,29.98,9,2,14,0.00
2013-4-24,68,58,46,56,51,44,94,80,63,30.26,30.19,6,1,14,0.01
2013-4-25,74,60,50,58,52,48,96,77,48,30.24,30.00,8,2,15,0.00
2013-4-26,55,49,44,49,39,30,92,70,41,30.02,29.89,11,2,21,0.12
2013-4-27,53,44,37,41,37,33,89,77,53,30.10,29.89,8,1,14,0.09
2013-4-28,54,45,33,41,36,32,95,71,44,30.10,29.89,6,1,16,0.00
2013-4-29,57,50,44,44,39,35,90,66,46,30.17,29.89,9,3,15,0.00
2013-4-30,59,50,38,42,38,32,90,65,39,30.30,30.17,10,2,14,0.00
2013-5-1,63,50,39,42,37,32,89,64,33,30.31,30.14,8,1,13,0.00
2013-5-2,65,53,40,37,29,15,72,44,17,30.22,30.13,8,2,14,0.00
2013-5-3,67,54,38,47,41,34,90,64,36,30.18,30.02,9,2,14,0.00
2013-5-4,63,54,45,51,44,38,88,70,44,30.13,29.97,13,2,22,0.02
2013-5-5,67,56,42,52,47,39,93,73,56,30.19,30.13,5,1,8,0.00
2013-5-6,73,60,50,52,48,43,90,66,43,30.17,30.03,5,0,8,0.00
2013-5-7,74,60,44,51,46,41,93,62,37,30.07,29.84,10,2,13,0.00
2013-5-8,65,58,48,56,50,45,95,78,62,29.84,29.68,9,1,17,0.03
2013-5-9,59,51,43,49,44,40,92,78,51,29.84,29.67,9,2,23,0.07
2013-5-10,63,54,49,50,47,44,89,78,53,29.92,29.68,10,2,18,0.01
2013-5-11,57,50,44,52,44,40,95,82,60,29.92,29.79,15,2,26,0.11
2013-5-12,59,50,42,51,44,39,94,81,52,30.01,29.90,10,2,16,0.02
2013-5-13,60,53,48,51,44,38,95,74,50,29.91,29.80,13,3,22,0.05
2013-5-14,55,49,44,48,44,40,96,84,60,29.81,29.21,11,2,18,0.29
2013-5-15,59,48,42,46,42,38,91,77,54,29.55,29.14,12,2,21,0.10
2013-5-16,63,51,37,48,41,36,97,72,40,29.56,29.46,6,0,11,0.01
2013-5-17,54,50,41,46,43,39,95,79,67,29.81,29.56,5,1,9,0.00
2013-5-18,60,54,48,46,45,43,87,73,59,29.80,29.69,9,-2,16,0.00
2013-5-19,66,57,47,51,48,44,91,72,57,29.88,29.77,6,1,11,0.00
2013-5-20,63,58,52,58,54,49,91,86,81,29.89,29.83,6,2,11,0.02
2013-5-21,61,57,53,57,51,48,91,82,69,30.06,29.89,6,2,11,0.02
2013-5-22,58,53,48,50,45,37,93,76,54,30.09,30.01,10,3,15,0.00
2013-5-23,52,47,44,40,38,32,82,70,50,30.01,29.87,15,4,25,0.02
2013-5-24,48,45,42,46,41,38,94,87,77,30.02,29.62,14,4,20,0.18
2013-5-25,60,51,41,44,41,38,94,71,44,30.16,30.02,6,1,12,0.00
2013-5-26,66,55,43,46,41,38,89,61,39,30.13,29.95,9,2,12,0.00
2013-5-27,65,55,41,46,41,32,88,62,31,29.95,29.62,8,1,16,0.00
2013-5-28,54,51,49,52,48,43,96,89,67,29.61,29.47,3,0,5,0.53
2013-5-29,56,51,46,53,48,44,95,90,79,29.76,29.56,7,2,12,0.02
2013-5-30,60,55,52,53,52,50,97,88,78,29.99,29.74,5,2,12,0.17
2013-5-31,70,61,53,57,52,49,89,75,55,30.11,29.98,6,2,12,0.00
2013-6-1,66,58,51,50,46,42,82,65,47,30.30,30.11,9,3,17,0.00
2013-6-2,66,58,49,47,44,41,86,62,43,30.43,30.30,7,2,12,0.00
2013-6-3,67,57,46,48,44,41,93,65,42,30.48,30.38,8,2,14,0.00
2013-6-4,70,59,46,49,44,39,84,59,39,30.42,30.19,11,3,18,0.00
2013-6-5,70,58,48,51,47,44,86,69,46,30.22,30.06,7,2,12,0.00
2013-6-6,73,60,48,54,49,44,88,67,49,30.18,30.10,8,3,14,0.00
2013-6-7,70,59,49,55,49,44,95,72,52,30.21,30.15,9,2,16,0.20
2013-6-8,65,57,48,49,46,44,86,69,51,30.21,30.04,10,3,17,0.00
2013-6-9,59,55,51,48,46,45,82,72,63,30.07,29.95,8,3,15,0.00
2013-6-10,62,55,50,49,45,42,80,69,59,30.00,29.94,6,1,10,0.00
2013-6-11,64,57,48,61,53,44,92,85,80,29.96,29.88,7,1,12,0.01
2013-6-12,64,60,57,60,57,53,94,88,75,29.88,29.78,5,2,13,0.06
2013-6-13,65,58,53,56,52,47,93,80,65,30.03,29.78,15,2,24,0.00
2013-6-14,69,58,46,54,49,41,93,74,40,30.06,29.78,9,2,15,0.00
2013-6-15,64,58,51,56,51,46,93,79,55,29.88,29.68,10,2,15,0.20
2013-6-16,66,58,52,53,50,47,90,74,60,29.95,29.87,5,0,8,0.01
2013-6-17,70,62,55,53,51,49,82,67,49,29.96,29.88,9,3,16,0.00
2013-6-18,70,64,57,63,57,52,92,80,70,29.96,29.89,5,1,8,0.00
2013-6-19,79,68,59,64,60,57,96,77,51,29.97,29.89,9,1,15,0.01
2013-6-20,72,66,59,63,60,55,89,82,69,29.94,29.78,6,2,11,0.00
2013-6-21,74,63,56,62,58,53,93,83,63,29.86,29.76,4,1,10,0.00
2013-6-22,66,58,53,58,53,50,96,83,67,29.86,29.65,6,2,15,0.09
2013-6-23,64,59,54,55,52,50,92,81,68,30.01,29.65,13,4,22,0.01
2013-6-24,62,57,52,51,47,43,87,69,52,30.28,30.01,13,4,17,0.00
2013-6-25,69,60,51,50,47,43,87,64,40,30.41,30.28,7,1,11,0.00
2013-6-26,71,61,48,54,50,45,93,69,46,30.43,30.33,7,1,12,0.00
2013-6-27,68,59,53,54,50,47,94,73,53,30.37,30.17,8,2,13,0.05
2013-6-28,72,62,54,64,58,52,96,89,74,30.17,30.03,9,2,14,0.04
2013-6-29,72,64,56,58,51,46,86,65,46,30.23,30.07,9,3,15,0.00
2013-6-30,80,68,58,62,58,53,94,71,44,30.23,30.05,9,2,14,0.00
2013-7-1,69,62,56,54,51,48,86,68,50,30.07,29.97,8,2,14,0.00
2013-7-2,64,58,51,55,51,48,89,78,60,29.99,29.66,6,-2,12,0.00
2013-7-3,69,62,58,59,57,53,96,83,65,30.00,29.61,9,2,16,0.06
2013-7-4,77,65,53,64,58,51,93,78,57,30.25,30.00,7,1,11,0.00
2013-7-5,80,66,52,61,55,49,95,70,42,30.41,30.25,6,1,10,0.00
2013-7-6,85,70,55,62,56,51,90,64,38,30.41,30.32,5,1,8,0.00
2013-7-7,85,74,61,62,58,53,92,62,34,30.49,30.39,7,2,13,0.00
2013-7-8,81,71,60,62,56,52,82,61,43,30.51,30.39,8,2,15,0.00
2013-7-9,81,69,55,56,48,39,83,52,25,30.43,30.24,7,2,13,0.00
2013-7-10,76,67,56,59,53,48,78,63,48,30.28,30.22,10,2,16,0.00
2013-7-11,75,62,53,54,49,45,81,63,41,30.29,30.20,7,2,13,0.00
2013-7-12,80,65,54,58,54,49,83,67,45,30.29,30.19,5,1,10,0.00
2013-7-13,89,74,58,66,61,55,92,66,39,30.23,30.18,7,1,13,0.00
2013-7-14,84,74,61,65,59,53,89,62,41,30.24,30.15,8,1,14,0.00
2013-7-15,90,76,64,60,51,38,71,45,22,30.22,30.15,5,1,10,0.00
2013-7-16,88,75,61,61,58,57,88,59,37,30.21,30.13,0,0,1,0.00
2013-7-17,91,76,61,61,58,55,81,56,33,30.26,30.16,6,0,10,0.00
2013-7-18,85,75,65,61,58,54,78,58,38,30.30,30.23,7,2,17,0.00
2013-7-19,83,72,60,61,56,50,72,57,41,30.30,30.18,11,3,17,0.00
2013-7-20,76,68,62,61,59,56,87,73,59,30.24,30.13,10,3,15,0.00
2013-7-21,80,70,63,63,59,54,84,71,53,30.16,30.00,8,-1,11,0.00
2013-7-22,94,76,64,67,62,59,91,66,34,30.04,29.92,9,1,13,0.00
2013-7-23,86,74,64,70,64,58,86,72,54,29.94,29.86,7,1,10,0.00
2013-7-24,84,70,58,62,59,55,93,71,46,29.96,29.90,5,0,9,0.00
2013-7-25,81,70,60,66,61,56,95,76,48,29.93,29.85,7,1,14,0.00
2013-7-26,83,69,55,60,56,52,95,68,43,29.91,29.82,5,0,9,0.00
2013-7-27,84,67,56,66,57,51,95,73,39,29.84,29.57,11,1,16,0.00
2013-7-28,77,67,58,62,59,56,96,76,54,29.77,29.58,9,2,15,0.00
2013-7-29,75,66,59,64,59,56,96,80,55,29.96,29.76,5,1,17,0.00
2013-7-30,73,64,58,66,60,57,95,89,71,29.97,29.84,4,0,9,0.00
2013-7-31,78,68,61,67,62,58,91,82,66,29.98,29.93,4,1,12,0.00
2013-8-1,92,77,62,69,64,60,95,67,36,29.93,29.65,11,3,19,0.00
2013-8-2,80,70,62,65,60,54,91,74,44,29.82,29.73,5,1,12,0.01
2013-8-3,77,67,58,60,57,54,95,73,48,30.08,29.79,5,1,15,0.00
2013-8-4,76,66,57,60,57,54,95,73,49,30.10,30.02,8,1,14,0.00
2013-8-5,76,66,61,63,59,55,95,80,54,30.02,29.75,7,2,15,0.00
2013-8-6,74,64,53,59,53,49,95,70,43,30.03,29.90,7,1,11,0.00
2013-8-7,74,66,58,58,52,49,91,64,44,30.02,29.89,7,1,14,0.00
2013-8-8,78,65,52,58,53,48,93,67,41,30.11,30.02,4,0,8,0.00
2013-8-9,74,67,61,63,56,50,94,70,47,30.17,30.02,9,3,17,0.00
2013-8-10,73,64,57,54,51,48,79,63,45,30.19,30.12,8,2,12,0.00
2013-8-11,73,66,60,59,54,49,84,66,45,30.12,29.99,9,2,15,0.00
2013-8-12,69,62,55,54,50,45,88,67,44,30.08,29.98,10,3,16,0.00
2013-8-13,68,60,50,57,51,47,92,75,51,30.20,30.08,9,2,14,0.00
2013-8-14,76,63,50,60,56,49,97,80,49,30.22,30.13,4,0,9,0.09
2013-8-15,76,67,62,66,62,58,97,84,64,30.13,30.00,7,0,13,0.03
2013-8-16,76,67,62,65,62,58,93,85,68,30.00,29.92,5,0,10,0.05
2013-8-17,70,62,56,61,58,54,97,85,66,29.98,29.72,6,1,13,0.02
2013-8-18,74,64,59,62,59,53,95,87,53,29.89,29.71,6,0,12,0.02
2013-8-19,72,64,54,54,52,48,88,67,45,30.30,29.89,8,2,13,0.00
2013-8-20,77,64,51,57,52,48,92,68,41,30.36,30.27,4,0,6,0.00
2013-8-21,81,66,52,59,54,50,95,68,39,30.29,30.12,4,1,9,0.02
2013-8-22,74,66,61,66,62,59,96,89,70,30.15,30.04,5,1,7,0.30
2013-8-23,81,70,60,64,60,55,96,74,45,30.04,29.84,8,2,12,0.00
2013-8-24,68,64,58,63,60,55,95,90,77,29.86,29.80,10,2,15,0.46
2013-8-25,75,64,56,63,58,52,95,81,58,30.03,29.82,10,2,15,0.11
2013-8-26,78,67,57,62,57,50,92,71,45,30.08,30.01,6,1,12,0.00
2013-8-27,75,62,51,58,52,48,96,72,43,30.11,30.02,4,0,7,0.00
2013-8-28,76,64,52,57,53,49,94,70,42,30.21,30.11,5,0,7,0.00
2013-8-29,77,65,56,60,56,53,94,74,49,30.19,30.11,8,1,14,0.00
2013-8-30,77,67,57,62,59,55,95,77,54,30.14,30.02,10,2,15,0.00
2013-8-31,69,63,56,60,49,42,92,63,40,30.39,30.11,7,2,13,0.00
2013-9-1,71,60,47,53,49,43,89,68,48,30.44,30.32,7,2,13,0.00
2013-9-2,77,65,52,61,56,50,93,74,55,30.34,30.26,7,2,12,0.00
2013-9-3,80,66,55,63,59,54,96,79,53,30.35,30.24,0,0,0,0.00
2013-9-4,83,68,54,63,58,53,97,72,41,30.26,29.98,0,0,0,0.00
2013-9-5,83,69,55,65,58,52,96,71,45,29.98,29.73,0,-4,0,0.00
2013-9-6,66,60,54,59,54,50,93,82,61,29.83,29.69,0,0,0,0.13
2013-9-7,67,57,51,54,50,46,91,77,52,30.03,29.82,5,0,14,0.01
2013-9-8,64,54,46,53,49,44,96,85,57,30.07,30.02,4,0,10,0.42
2013-9-9,57,53,46,55,51,44,96,94,91,30.05,29.95,6,1,9,0.24
2013-9-10,62,56,50,52,49,47,93,79,61,30.14,30.04,10,4,17,0.00
2013-9-11,63,57,54,54,51,48,95,79,63,30.17,30.10,8,3,15,0.09
2013-9-12,67,59,55,59,56,53,97,90,71,30.10,30.06,4,0,6,0.06
2013-9-13,67,62,57,64,61,56,98,96,87,30.06,29.85,3,0,7,0.82
2013-9-14,58,53,48,56,50,46,97,90,75,30.06,29.86,6,2,14,0.09
2013-9-15,60,53,43,59,50,42,98,89,62,30.06,29.54,10,1,15,0.08
2013-9-16,58,52,45,50,44,41,89,74,56,29.64,29.56,13,4,22,0.00
2013-9-17,60,53,44,58,49,41,96,87,70,29.64,29.33,5,1,10,0.19
2013-9-18,60,55,50,55,49,45,94,80,59,29.86,29.39,9,3,16,0.01
2013-9-19,62,54,43,60,50,41,95,89,72,29.89,29.72,6,1,12,0.02
2013-9-20,65,57,50,52,50,48,91,79,61,30.17,29.86,6,2,10,0.00
2013-9-21,67,58,49,61,55,47,96,89,79,30.30,30.17,3,0,7,0.00
2013-9-22,68,62,56,62,60,54,97,92,80,30.36,30.29,4,1,7,0.00
2013-9-23,66,60,54,60,57,53,98,91,80,30.33,30.10,0,0,1,0.00
2013-9-24,69,58,48,62,55,47,98,92,77,30.10,29.91,3,0,6,0.01
2013-9-25,71,62,56,62,58,54,97,87,70,29.91,29.80,3,0,6,0.01
2013-9-26,67,61,56,60,54,50,90,78,56,30.04,29.89,6,2,12,0.00
2013-9-27,64,57,49,52,51,48,95,81,62,30.04,29.91,8,2,13,0.00
2013-9-28,66,60,55,58,54,51,91,81,64,29.91,29.72,9,3,16,0.02
2013-9-29,64,60,58,55,54,52,86,80,70,29.74,29.68,9,4,16,0.00
2013-9-30,66,60,56,56,54,50,90,79,61,29.76,29.67,8,2,15,0.00
2013-10-1,63,58,53,58,53,51,91,83,73,29.81,29.74,7,2,15,0.00
2013-10-2,70,62,58,62,57,53,95,85,72,29.87,29.77,7,2,12,0.00
2013-10-3,66,61,56,64,59,55,98,94,88,29.86,29.68,8,2,13,0.10
2013-10-4,70,64,58,63,60,56,95,88,75,29.93,29.66,6,1,11,0.02
2013-10-5,66,60,56,59,56,53,96,89,74,30.24,29.93,5,1,7,0.00
2013-10-6,68,56,45,55,51,44,98,85,59,30.29,30.24,0,0,0,0.00
2013-10-7,67,58,50,58,54,48,98,89,72,30.29,30.23,4,0,8,0.01
2013-10-8,68,62,54,60,58,52,97,88,73,30.27,30.21,4,0,8,0.00
2013-10-9,63,57,48,58,51,40,94,81,67,30.23,29.97,11,3,19,0.00
2013-10-10,53,49,45,43,40,38,82,72,60,30.12,30.01,11,4,19,0.00
2013-10-11,57,52,47,53,48,40,95,86,69,30.11,29.95,9,4,20,0.16
2013-10-12,58,53,46,54,48,43,95,83,60,30.10,29.95,7,2,15,0.06
2013-10-13,53,50,47,52,49,46,97,95,91,30.00,29.77,11,2,16,0.38
2013-10-14,54,49,47,50,48,46,97,94,84,29.78,29.70,8,1,13,0.15
2013-10-15,56,50,44,50,47,43,96,90,79,29.95,29.74,7,2,11,0.00
2013-10-16,59,50,42,58,48,41,98,93,76,29.96,29.67,8,1,15,0.20
2013-10-17,64,56,51,57,53,49,96,89,77,30.00,29.81,8,1,14,0.02
2013-10-18,63,56,50,58,54,49,98,91,77,30.01,29.76,8,2,13,0.00
2013-10-19,64,59,54,61,56,52,96,92,86,29.76,29.62,6,1,9,0.08
2013-10-20,63,57,53,58,54,52,97,92,82,29.74,29.62,6,1,13,0.39
2013-10-21,65,60,54,60,57,53,98,91,81,29.74,29.59,7,2,15,0.02
2013-10-22,66,62,56,61,58,54,94,89,83,29.59,29.32,9,3,14,0.28
2013-10-23,62,57,46,57,52,44,95,86,69,29.85,29.25,9,2,15,0.06
2013-10-24,63,52,41,55,49,40,98,89,73,29.98,29.80,6,1,9,0.00
2013-10-25,66,60,56,61,57,54,97,88,79,29.81,29.58,6,2,13,0.05
2013-10-26,64,59,57,58,56,53,93,88,80,29.70,29.48,6,2,16,0.04
2013-10-27,62,56,52,56,52,48,96,87,67,29.48,29.21,7,1,17,0.52
2013-10-28,60,53,46,59,50,44,97,89,70,29.58,28.89,22,2,38,0.54
2013-10-29,54,47,40,47,43,38,96,86,64,30.06,29.59,10,2,17,0.01
2013-10-30,58,49,36,52,45,35,97,87,70,30.18,30.06,4,0,11,0.01
2013-10-31,56,54,53,54,52,50,96,92,87,30.06,29.93,4,0,10,0.05
2013-11-1,59,55,52,55,52,49,95,91,87,29.93,29.53,4,0,8,0.03
2013-11-2,60,53,48,54,48,43,97,86,72,29.57,29.38,7,1,17,0.02
2013-11-3,53,48,45,46,43,40,96,81,68,29.58,29.03,8,2,20,0.37
2013-11-4,50,44,38,46,40,36,96,87,70,29.49,29.00,11,2,19,0.23
2013-11-5,54,48,37,51,44,35,97,88,69,29.51,29.25,14,2,26,0.23
2013-11-6,59,54,48,57,51,45,98,92,85,29.55,29.46,4,1,13,0.07
2013-11-7,58,50,42,56,46,40,95,87,72,29.77,29.51,10,1,16,0.00
2013-11-8,53,45,39,50,43,38,98,95,89,29.77,29.57,8,1,14,0.45
2013-11-9,45,41,36,44,40,35,98,97,95,29.77,29.60,4,0,7,0.24
2013-11-10,49,42,35,43,38,33,98,87,62,30.26,29.61,8,2,15,0.02
2013-11-11,55,49,35,55,48,34,98,95,87,30.25,30.13,8,1,14,0.09
2013-11-12,55,50,38,55,48,36,98,91,76,30.51,30.14,7,1,14,0.06
2013-11-13,52,41,32,45,38,31,98,89,71,30.57,30.20,3,0,7,0.01
2013-11-14,49,46,41,45,41,36,91,82,70,30.41,30.12,13,5,27,0.00
2013-11-15,50,42,36,40,36,33,95,81,67,30.53,30.41,5,1,11,0.00
2013-11-16,48,40,30,44,38,29,97,92,83,30.52,30.37,5,0,10,0.00
2013-11-17,49,48,46,47,45,44,96,92,87,30.37,30.01,3,0,4,0.02
2013-11-18,50,47,44,47,46,40,98,94,86,30.01,29.75,6,1,12,0.02
2013-11-19,44,39,33,40,34,29,92,82,64,30.06,29.79,8,2,14,0.01
2013-11-20,46,38,28,43,35,26,95,90,80,30.04,29.40,14,2,24,0.08
2013-11-21,47,42,38,40,38,35,96,85,65,29.93,29.42,8,2,17,0.01
2013-11-22,47,41,37,38,36,34,94,84,69,30.16,29.93,5,1,12,0.00
2013-11-23,46,42,36,40,38,34,95,88,76,30.31,30.15,4,1,10,0.00
2013-11-24,47,44,40,43,40,36,89,85,78,30.56,30.31,5,1,14,0.01
2013-11-25,45,42,40,39,38,36,92,85,76,30.68,30.56,4,1,9,0.00
2013-11-26,46,41,31,40,36,29,94,82,69,30.72,30.57,5,1,7,0.00
2013-11-27,51,46,42,48,44,39,95,93,86,30.57,30.47,2,0,4,0.01
2013-11-28,51,48,46,47,46,44,95,91,85,30.57,30.51,2,0,4,0.00
2013-11-29,50,47,44,45,42,38,95,83,69,30.51,30.18,10,3,18,0.00
2013-11-30,48,43,34,41,38,32,93,81,76,30.46,30.18,7,2,14,0.00
2013-12-1,49,42,33,44,40,31,96,90,81,30.55,30.44,3,0,5,0.00
2013-12-2,50,46,41,44,42,38,93,86,75,30.57,30.44,2,0,6,0.00
2013-12-3,44,43,41,40,37,35,88,81,77,30.44,30.32,5,0,9,0.00
2013-12-4,48,41,31,44,37,30,96,86,66,30.50,30.30,5,1,10,0.00
2013-12-5,51,41,29,46,36,28,97,83,59,30.48,30.03,15,3,24,0.02
2013-12-6,47,43,38,43,37,32,93,80,71,30.39,30.24,9,2,14,0.00
2013-12-7,48,45,42,44,43,40,96,91,82,30.35,30.27,4,0,8,0.00
2013-12-8,53,45,39,47,43,37,96,90,79,30.32,30.24,5,0,9,0.00
2013-12-9,52,44,37,48,42,36,98,94,84,30.41,30.31,3,0,5,0.02
2013-12-10,48,40,32,46,38,31,98,95,89,30.47,30.41,3,0,5,0.00
2013-12-11,39,34,32,38,34,31,98,97,96,30.45,30.32,2,0,3,0.02
2013-12-12,47,40,31,47,40,30,99,98,96,30.32,30.19,3,0,5,0.01
2013-12-13,54,50,44,50,48,42,97,91,78,30.19,30.02,5,1,11,0.07
2013-12-14,52,46,37,48,43,35,96,89,77,30.31,30.05,9,2,22,0.04
2013-12-15,54,52,45,53,50,43,96,94,89,30.17,29.99,9,2,18,0.21
2013-12-16,55,52,44,53,50,43,97,94,90,30.12,29.94,8,3,16,0.39
2013-12-17,45,42,40,44,41,39,98,96,92,30.28,29.97,4,1,7,0.25
2013-12-18,51,47,40,48,45,40,99,94,86,29.98,29.30,13,3,25,0.04
2013-12-19,48,43,36,46,39,35,96,86,69,29.86,29.32,12,1,19,0.13
2013-12-20,51,43,35,47,40,34,97,89,76,30.18,29.87,10,2,20,0.02
2013-12-21,53,51,48,51,49,43,95,91,76,30.06,29.72,11,4,22,0.11
2013-12-22,51,46,39,45,41,36,89,82,68,29.93,29.73,8,2,17,0.00
2013-12-23,52,48,39,51,46,36,96,91,86,29.92,28.87,13,5,29,0.02
2013-12-24,52,46,41,51,43,39,96,90,80,28.99,28.80,14,3,32,0.29
2013-12-25,44,40,37,41,38,36,96,93,87,29.17,28.93,5,1,12,0.08
2013-12-26,46,39,34,43,38,34,98,95,81,29.49,29.17,11,1,22,0.00
2013-12-27,52,48,44,51,43,37,96,83,72,29.27,29.01,14,4,28,0.14
2013-12-28,48,40,32,40,36,30,96,86,74,29.72,29.26,3,0,8,0.00
2013-12-29,47,38,29,43,35,28,98,91,77,30.08,29.72,6,1,12,0.01
2013-12-30,51,47,41,48,44,40,95,90,81,30.00,29.68,12,4,24,0.02
2013-12-31,52,46,41,48,44,39,96,92,85,29.85,29.55,12,3,21,0.17
2014-1-1,51,48,43,50,46,41,96,93,86,29.58,29.04,16,1,26,0.07
2014-1-2,51,48,42,48,45,40,96,89,76,29.45,29.07,9,2,20,0.10